George S. — A8TJ9 — position and weather

sailwx.info

Track history (hours):
 
Tides and Currents Weather Stations Pressure Air Temp Water Temp Dewpoint Dewpoint Depression Visibility Wind Speed Wind Dir Waves Ship Positions

George S.

Last reported at 2017-Sep-18 22:30 UTC. Time now 2017-Sep-22 06:28 UTC.
Position N 35°30' W 009°48'.

Length 274 m; draft 16.4 m.

Type: Tanker. MMSI: 636014372.

Date/timePositionNaut miles runAvg speedWind from/ knotsBaromVisibWave heightAir tempDewpointWater temp
2017-Sep-18 22:30N 35°30' W 009°48'20710.2
2017-Sep-18 02:10N 35°58' W 005°36'310.5
2017-Sep-18 01:54N 35°58' W 005°32'410.1
2017-Sep-18 01:31N 35°60' W 005°28'5 9.4
2017-Sep-18 01:01N 36°01' W 005°22'4 8.1
2017-Sep-18 00:30N 36°02' W 005°17'5 9.1
2017-Sep-18 00:00N 36°04' W 005°12'  
2017-Sep-15 02:28N 37°56' E 008°48'10 9.6
2017-Sep-15 01:23N 37°55' E 009°02'6 9.6
2017-Sep-15 00:47N 37°54' E 009°09'5 9.6
2017-Sep-15 00:17N 37°53' E 009°15'3 9.7
2017-Sep-15 00:00N 37°52' E 009°18'5 9.5
2017-Sep-14 23:30N 37°51' E 009°24'8 9.6
2017-Sep-14 22:40N 37°50' E 009°34'1 9.6
2017-Sep-14 22:30N 37°49' E 009°36'5 9.5
2017-Sep-14 22:00N 37°48' E 009°42'5 9.3
2017-Sep-14 21:30N 37°47' E 009°47'5 9.1
2017-Sep-14 20:55N 37°46' E 009°54'4 9.2
2017-Sep-14 20:29N 37°45' E 009°59'4 9.1
2017-Sep-14 20:00N 37°44' E 010°04'5 9.1
2017-Sep-14 19:30N 37°43' E 010°10'5 9.3
2017-Sep-14 18:59N 37°42' E 010°16'4 9.3
2017-Sep-14 18:30N 37°40' E 010°21'92 9.9
2017-Sep-14 09:12N 37°03' E 012°06'2712.8
2017-Sep-14 07:03N 36°51' E 012°37'112.5
2017-Sep-14 07:00N 36°51' E 012°38'612.5
2017-Sep-14 06:30N 36°48' E 012°45'612.6
2017-Sep-14 06:01N 36°46' E 012°52'612.6
2017-Sep-14 05:30N 36°43' E 012°59'612.6
2017-Sep-14 05:00N 36°41' E 013°07'612.7
2017-Sep-14 04:30N 36°38' E 013°14'612.6
2017-Sep-14 04:00N 36°35' E 013°21'612.4
2017-Sep-14 03:30N 36°33' E 013°28'612.4
2017-Sep-14 03:01N 36°30' E 013°35'612.3
2017-Sep-14 02:30N 36°27' E 013°42'612.2
2017-Sep-14 02:01N 36°25' E 013°48'612.1
2017-Sep-14 01:28N 36°22' E 013°56'612.0
2017-Sep-14 01:01N 36°20' E 014°02'612.2
2017-Sep-14 00:30N 36°18' E 014°09'612.5
2017-Sep-14 00:01N 36°15' E 014°16'612.7
2017-Sep-13 23:31N 36°12' E 014°23'713.0
2017-Sep-13 23:00N 36°10' E 014°31'612.9
2017-Sep-13 22:30N 36°07' E 014°38'612.9
2017-Sep-13 22:00N 36°04' E 014°45'611.4
2017-Sep-13 21:30N 36°02' E 014°52'2 4.6
2017-Sep-13 21:01N 36°01' E 014°54'0 0.2
2017-Sep-13 20:27N 36°01' E 014°54'0 0.0
2017-Sep-13 20:00N 36°01' E 014°54'0 0.0
2017-Sep-13 19:30N 36°01' E 014°54'0 0.0
2017-Sep-13 19:00N 36°01' E 014°54'0 0.0
2017-Sep-13 18:30N 36°01' E 014°54'0 0.0
2017-Sep-13 18:00N 36°01' E 014°54'0 0.1
2017-Sep-13 17:30N 36°01' E 014°54'0 0.0
2017-Sep-13 17:00N 36°01' E 014°54'0 0.0
2017-Sep-13 16:30N 36°01' E 014°54'0 0.0
2017-Sep-13 15:57N 36°01' E 014°54'0 0.0
2017-Sep-13 15:30N 36°01' E 014°54'0 0.0
2017-Sep-13 15:00N 36°01' E 014°54'0 0.0
2017-Sep-13 14:30N 36°01' E 014°54'0 0.0
2017-Sep-13 14:00N 36°01' E 014°54'0 0.0
2017-Sep-13 13:27N 36°01' E 014°54'0 0.0
2017-Sep-13 13:00N 36°01' E 014°54'0 0.1
2017-Sep-13 12:30N 36°01' E 014°54'0 0.0
2017-Sep-13 12:00N 36°01' E 014°54'0 0.0
2017-Sep-13 11:30N 36°01' E 014°54'0 0.0
2017-Sep-13 10:57N 36°01' E 014°54'0 0.0
2017-Sep-13 10:30N 36°01' E 014°54'0 0.0
2017-Sep-13 10:00N 36°01' E 014°54'0 0.1
2017-Sep-13 09:30N 36°01' E 014°54'0 0.1
2017-Sep-13 08:57N 36°01' E 014°54'0 0.1
2017-Sep-13 08:27N 36°01' E 014°54'0 0.0
2017-Sep-13 08:00N 36°01' E 014°54'0 0.0
2017-Sep-13 07:30N 36°01' E 014°54'0 0.1
2017-Sep-13 07:00N 36°01' E 014°54'0 0.1
2017-Sep-13 06:30N 36°01' E 014°54'0 0.1
2017-Sep-13 06:00N 36°01' E 014°54'0 0.0
2017-Sep-13 05:30N 36°01' E 014°54'0 0.0
2017-Sep-13 05:00N 36°01' E 014°54'0 0.0
2017-Sep-13 04:30N 36°01' E 014°54'0 0.0
2017-Sep-13 04:00N 36°01' E 014°54'0 0.0
2017-Sep-13 03:30N 36°01' E 014°54'0 0.0
2017-Sep-13 03:00N 36°01' E 014°54'0 0.0
2017-Sep-13 02:30N 36°01' E 014°54'0 0.0
2017-Sep-13 02:00N 36°01' E 014°54'0 0.0
2017-Sep-13 01:30N 36°01' E 014°54'0 0.0
2017-Sep-13 01:00N 36°01' E 014°54'0 0.0
2017-Sep-13 00:30N 36°01' E 014°54'0 0.0
2017-Sep-13 00:00N 36°01' E 014°54'0 0.0
2017-Sep-12 23:27N 36°01' E 014°54'0 0.0
2017-Sep-12 23:00N 36°01' E 014°54'0 0.0
2017-Sep-12 22:24N 36°01' E 014°54'0 0.0
2017-Sep-12 22:00N 36°01' E 014°54'0 0.0
2017-Sep-12 21:27N 36°01' E 014°54'0 0.1
2017-Sep-12 21:00N 36°01' E 014°54'0 0.1
2017-Sep-12 20:27N 36°01' E 014°54'0 0.1
2017-Sep-12 20:00N 36°01' E 014°54'0 0.3
2017-Sep-12 19:30N 36°01' E 014°54'1 1.2
2017-Sep-12 19:00N 36°01' E 014°55'3 2.9
2017-Sep-12 18:04N 36°04' E 014°54'0 5.3
2017-Sep-12 18:00N 36°04' E 014°54'2 4.6
2017-Sep-12 17:30N 36°06' E 014°52'2 2.1
2017-Sep-12 16:39N 36°05' E 014°50'1 4.3
2017-Sep-12 16:28N 36°04' E 014°50'2 4.6
2017-Sep-12 16:00N 36°02' E 014°48'1 2.9
2017-Sep-12 15:29N 36°01' E 014°47'0 0.5
2017-Sep-12 15:00N 36°01' E 014°47'1 2.7
2017-Sep-12 14:30N 36°00' E 014°48'3 6.3
2017-Sep-12 14:00N 35°58' E 014°51'2 3.2
2017-Sep-12 13:30N 35°57' E 014°53'0 0.1
2017-Sep-12 12:15N 35°57' E 014°53'0 0.0
2017-Sep-12 12:00N 35°57' E 014°53'0 0.0
2017-Sep-12 11:24N 35°57' E 014°53'0 0.0
2017-Sep-12 10:24N 35°57' E 014°53'0 0.0
2017-Sep-12 10:00N 35°57' E 014°53'0 0.0
2017-Sep-12 09:18N 35°57' E 014°53'0 0.0
2017-Sep-12 08:42N 35°57' E 014°53'0 0.1
2017-Sep-12 07:27N 35°57' E 014°53'1 1.2
2017-Sep-12 06:58N 35°57' E 014°52'11 1.1
2017-Sep-11 21:30N 36°08' E 014°48'0 0.8
2017-Sep-11 20:59N 36°07' E 014°48'4 5.7
2017-Sep-11 20:14N 36°05' E 014°52'0 2.1
2017-Sep-11 20:00N 36°05' E 014°52'1 0.2
2017-Sep-11 12:37N 36°06' E 014°51'0 1.4
2017-Sep-11 12:30N 36°06' E 014°51'2 0.2
2017-Sep-10 23:55N 36°06' E 014°49'0 0.5
2017-Sep-10 23:30N 36°06' E 014°49'0 0.4
2017-Sep-10 23:00N 36°06' E 014°49'0 0.3
2017-Sep-10 22:30N 36°06' E 014°49'0 0.2
2017-Sep-10 22:00N 36°06' E 014°49'0 0.2
2017-Sep-10 21:30N 36°06' E 014°49'0 0.2
2017-Sep-10 21:00N 36°06' E 014°49'0 0.2
2017-Sep-10 20:30N 36°05' E 014°49'0 0.4
2017-Sep-10 20:00N 36°05' E 014°49'0 0.4
2017-Sep-10 19:30N 36°05' E 014°48'0 0.5
2017-Sep-10 19:00N 36°05' E 014°48'0 0.6
2017-Sep-10 18:30N 36°05' E 014°48'0 0.6
2017-Sep-10 18:00N 36°05' E 014°47'0 0.7
2017-Sep-10 17:30N 36°05' E 014°47'0 0.7
2017-Sep-10 17:00N 36°05' E 014°47'0 0.8
2017-Sep-10 16:30N 36°05' E 014°46'3 5.1
2017-Sep-10 16:00N 36°03' E 014°43'5 9.5
2017-Sep-10 15:30N 36°01' E 014°38'2 3.2
2017-Sep-10 15:00N 36°00' E 014°37'1 0.7
2017-Sep-10 14:00N 35°60' E 014°37'0 0.7
2017-Sep-10 13:30N 35°60' E 014°37'0 0.7
2017-Sep-10 13:00N 35°59' E 014°37'0 0.7
2017-Sep-10 12:30N 35°59' E 014°38'1 2.3
2017-Sep-10 12:00N 35°59' E 014°39'2 4.7
2017-Sep-10 11:30N 36°01' E 014°41'2 4.7
2017-Sep-10 11:00N 36°02' E 014°43'2 3.7
2017-Sep-10 10:30N 36°04' E 014°45'2 4.2
2017-Sep-10 09:57N 36°05' E 014°47'0 0.9
2017-Sep-10 09:28N 36°06' E 014°47'1 1.2
2017-Sep-10 08:58N 36°06' E 014°48'0 0.2
2017-Sep-10 08:30N 36°06' E 014°48'0 0.2
2017-Sep-10 07:58N 36°06' E 014°48'0 0.2
2017-Sep-10 07:30N 36°06' E 014°48'0 0.1
2017-Sep-10 07:00N 36°06' E 014°48'0 0.1
2017-Sep-10 06:30N 36°06' E 014°48'0 0.1
2017-Sep-10 06:00N 36°06' E 014°48'0 0.1
2017-Sep-10 05:30N 36°06' E 014°48'0 0.2
2017-Sep-10 05:00N 36°06' E 014°48'0 0.2
2017-Sep-10 04:30N 36°06' E 014°48'0 0.2
2017-Sep-10 04:00N 36°06' E 014°48'0 0.2
2017-Sep-10 03:30N 36°06' E 014°48'0 0.2
2017-Sep-10 02:59N 36°07' E 014°47'0 0.3
2017-Sep-10 02:29N 36°07' E 014°47'0 0.3
2017-Sep-10 02:00N 36°07' E 014°47'0 0.3
2017-Sep-10 01:26N 36°07' E 014°47'0 0.3
2017-Sep-10 01:00N 36°07' E 014°47'0 0.3
2017-Sep-10 00:30N 36°07' E 014°47'0 0.3
2017-Sep-09 23:57N 36°07' E 014°46'0 0.3
2017-Sep-09 23:16N 36°07' E 014°46'0 0.4
2017-Sep-09 23:00N 36°07' E 014°46'0 0.3
2017-Sep-09 22:30N 36°07' E 014°46'0 0.2
2017-Sep-09 21:53N 36°07' E 014°46'0 0.2
2017-Sep-09 21:30N 36°07' E 014°46'0 0.2
2017-Sep-09 21:00N 36°07' E 014°45'0 0.2
2017-Sep-09 20:29N 36°07' E 014°45'0 0.2
2017-Sep-09 19:55N 36°07' E 014°45'0 0.0
2017-Sep-09 19:24N 36°07' E 014°45'0 0.1
2017-Sep-09 19:00N 36°07' E 014°45'0 0.3
2017-Sep-09 18:28N 36°07' E 014°45'1 0.4
2017-Sep-09 16:35N 36°06' E 014°45'0 0.3
2017-Sep-09 16:24N 36°06' E 014°44'0 0.4
2017-Sep-09 16:00N 36°06' E 014°44'1 0.9
2017-Sep-09 15:23N 36°06' E 014°44'1 2.8
2017-Sep-09 14:55N 36°05' E 014°45'3 4.5
2017-Sep-09 14:19N 36°04' E 014°48'2 4.7
2017-Sep-09 13:59N 36°03' E 014°50'2 4.3
2017-Sep-09 13:26N 36°02' E 014°52'2 4.2
2017-Sep-09 13:00N 36°02' E 014°54'1 0.8
2017-Sep-09 12:15N 36°01' E 014°54'0 0.0
2017-Sep-09 11:42N 36°01' E 014°54'0 0.0
2017-Sep-09 11:30N 36°01' E 014°54'0 0.0
2017-Sep-09 10:45N 36°01' E 014°54'0 0.0
2017-Sep-09 10:21N 36°01' E 014°54'0 0.0
2017-Sep-09 08:54N 36°01' E 014°54'0 0.0
2017-Sep-09 08:24N 36°01' E 014°54'0 0.1
2017-Sep-09 07:48N 36°01' E 014°54'0 0.2
2017-Sep-09 07:30N 36°01' E 014°54'0 0.1
2017-Sep-09 06:36N 36°01' E 014°54'0 0.1
2017-Sep-09 06:30N 36°01' E 014°54'0 0.0
2017-Sep-09 05:57N 36°01' E 014°54'0 0.0
2017-Sep-09 05:24N 36°01' E 014°54'0 0.1
2017-Sep-09 04:57N 36°01' E 014°54'0 0.0
2017-Sep-09 04:24N 36°01' E 014°54'0 0.1
2017-Sep-09 04:00N 36°01' E 014°54'0 0.0
2017-Sep-09 02:27N 36°01' E 014°54'0 0.0
2017-Sep-09 01:51N 36°01' E 014°54'  
Track history (hours):
 
Tides and Currents Weather Stations Pressure Air Temp Water Temp Dewpoint Dewpoint Depression Visibility Wind Speed Wind Dir Waves Ship Positions

George S.

Last reported at 2017-Sep-18 22:30 UTC. Time now 2017-Sep-22 06:28 UTC.
Position N 35°30' W 009°48'.

Length 274 m; draft 16.4 m.

Type: Tanker. MMSI: 636014372.

Date/timePositionNaut miles runAvg speedWind from/ knotsBaromVisibWave heightAir tempDewpointWater temp
2017-Sep-18 22:30N 35°30' W 009°48'20710.2
2017-Sep-18 02:10N 35°58' W 005°36'310.5
2017-Sep-18 01:54N 35°58' W 005°32'410.1
2017-Sep-18 01:31N 35°60' W 005°28'5 9.4
2017-Sep-18 01:01N 36°01' W 005°22'4 8.1
2017-Sep-18 00:30N 36°02' W 005°17'5 9.1
2017-Sep-18 00:00N 36°04' W 005°12'  
2017-Sep-15 02:28N 37°56' E 008°48'10 9.6
2017-Sep-15 01:23N 37°55' E 009°02'6 9.6
2017-Sep-15 00:47N 37°54' E 009°09'5 9.6
2017-Sep-15 00:17N 37°53' E 009°15'3 9.7
2017-Sep-15 00:00N 37°52' E 009°18'5 9.5
2017-Sep-14 23:30N 37°51' E 009°24'8 9.6
2017-Sep-14 22:40N 37°50' E 009°34'1 9.6
2017-Sep-14 22:30N 37°49' E 009°36'5 9.5
2017-Sep-14 22:00N 37°48' E 009°42'5 9.3
2017-Sep-14 21:30N 37°47' E 009°47'5 9.1
2017-Sep-14 20:55N 37°46' E 009°54'4 9.2
2017-Sep-14 20:29N 37°45' E 009°59'4 9.1
2017-Sep-14 20:00N 37°44' E 010°04'5 9.1
2017-Sep-14 19:30N 37°43' E 010°10'5 9.3
2017-Sep-14 18:59N 37°42' E 010°16'4 9.3
2017-Sep-14 18:30N 37°40' E 010°21'92 9.9
2017-Sep-14 09:12N 37°03' E 012°06'2712.8
2017-Sep-14 07:03N 36°51' E 012°37'112.5
2017-Sep-14 07:00N 36°51' E 012°38'612.5
2017-Sep-14 06:30N 36°48' E 012°45'612.6
2017-Sep-14 06:01N 36°46' E 012°52'612.6
2017-Sep-14 05:30N 36°43' E 012°59'612.6
2017-Sep-14 05:00N 36°41' E 013°07'612.7
2017-Sep-14 04:30N 36°38' E 013°14'612.6
2017-Sep-14 04:00N 36°35' E 013°21'612.4
2017-Sep-14 03:30N 36°33' E 013°28'612.4
2017-Sep-14 03:01N 36°30' E 013°35'612.3
2017-Sep-14 02:30N 36°27' E 013°42'612.2
2017-Sep-14 02:01N 36°25' E 013°48'612.1
2017-Sep-14 01:28N 36°22' E 013°56'612.0
2017-Sep-14 01:01N 36°20' E 014°02'612.2
2017-Sep-14 00:30N 36°18' E 014°09'612.5
2017-Sep-14 00:01N 36°15' E 014°16'612.7
2017-Sep-13 23:31N 36°12' E 014°23'713.0
2017-Sep-13 23:00N 36°10' E 014°31'612.9
2017-Sep-13 22:30N 36°07' E 014°38'612.9
2017-Sep-13 22:00N 36°04' E 014°45'611.4
2017-Sep-13 21:30N 36°02' E 014°52'2 4.6
2017-Sep-13 21:01N 36°01' E 014°54'0 0.2
2017-Sep-13 20:27N 36°01' E 014°54'0 0.0
2017-Sep-13 20:00N 36°01' E 014°54'0 0.0
2017-Sep-13 19:30N 36°01' E 014°54'0 0.0
2017-Sep-13 19:00N 36°01' E 014°54'0 0.0
2017-Sep-13 18:30N 36°01' E 014°54'0 0.0
2017-Sep-13 18:00N 36°01' E 014°54'0 0.1
2017-Sep-13 17:30N 36°01' E 014°54'0 0.0
2017-Sep-13 17:00N 36°01' E 014°54'0 0.0
2017-Sep-13 16:30N 36°01' E 014°54'0 0.0
2017-Sep-13 15:57N 36°01' E 014°54'0 0.0
2017-Sep-13 15:30N 36°01' E 014°54'0 0.0
2017-Sep-13 15:00N 36°01' E 014°54'0 0.0
2017-Sep-13 14:30N 36°01' E 014°54'0 0.0
2017-Sep-13 14:00N 36°01' E 014°54'0 0.0
2017-Sep-13 13:27N 36°01' E 014°54'0 0.0
2017-Sep-13 13:00N 36°01' E 014°54'0 0.1
2017-Sep-13 12:30N 36°01' E 014°54'0 0.0
2017-Sep-13 12:00N 36°01' E 014°54'0 0.0
2017-Sep-13 11:30N 36°01' E 014°54'0 0.0
2017-Sep-13 10:57N 36°01' E 014°54'0 0.0
2017-Sep-13 10:30N 36°01' E 014°54'0 0.0
2017-Sep-13 10:00N 36°01' E 014°54'0 0.1
2017-Sep-13 09:30N 36°01' E 014°54'0 0.1
2017-Sep-13 08:57N 36°01' E 014°54'0 0.1
2017-Sep-13 08:27N 36°01' E 014°54'0 0.0
2017-Sep-13 08:00N 36°01' E 014°54'0 0.0
2017-Sep-13 07:30N 36°01' E 014°54'0 0.1
2017-Sep-13 07:00N 36°01' E 014°54'0 0.1
2017-Sep-13 06:30N 36°01' E 014°54'0 0.1
2017-Sep-13 06:00N 36°01' E 014°54'0 0.0
2017-Sep-13 05:30N 36°01' E 014°54'0 0.0
2017-Sep-13 05:00N 36°01' E 014°54'0 0.0
2017-Sep-13 04:30N 36°01' E 014°54'0 0.0
2017-Sep-13 04:00N 36°01' E 014°54'0 0.0
2017-Sep-13 03:30N 36°01' E 014°54'0 0.0
2017-Sep-13 03:00N 36°01' E 014°54'0 0.0
2017-Sep-13 02:30N 36°01' E 014°54'0 0.0
2017-Sep-13 02:00N 36°01' E 014°54'0 0.0
2017-Sep-13 01:30N 36°01' E 014°54'0 0.0
2017-Sep-13 01:00N 36°01' E 014°54'0 0.0
2017-Sep-13 00:30N 36°01' E 014°54'0 0.0
2017-Sep-13 00:00N 36°01' E 014°54'0 0.0
2017-Sep-12 23:27N 36°01' E 014°54'0 0.0
2017-Sep-12 23:00N 36°01' E 014°54'0 0.0
2017-Sep-12 22:24N 36°01' E 014°54'0 0.0
2017-Sep-12 22:00N 36°01' E 014°54'0 0.0
2017-Sep-12 21:27N 36°01' E 014°54'0 0.1
2017-Sep-12 21:00N 36°01' E 014°54'0 0.1
2017-Sep-12 20:27N 36°01' E 014°54'0 0.1
2017-Sep-12 20:00N 36°01' E 014°54'0 0.3
2017-Sep-12 19:30N 36°01' E 014°54'1 1.2
2017-Sep-12 19:00N 36°01' E 014°55'3 2.9
2017-Sep-12 18:04N 36°04' E 014°54'0 5.3
2017-Sep-12 18:00N 36°04' E 014°54'2 4.6
2017-Sep-12 17:30N 36°06' E 014°52'2 2.1
2017-Sep-12 16:39N 36°05' E 014°50'1 4.3
2017-Sep-12 16:28N 36°04' E 014°50'2 4.6
2017-Sep-12 16:00N 36°02' E 014°48'1 2.9
2017-Sep-12 15:29N 36°01' E 014°47'0 0.5
2017-Sep-12 15:00N 36°01' E 014°47'1 2.7
2017-Sep-12 14:30N 36°00' E 014°48'3 6.3
2017-Sep-12 14:00N 35°58' E 014°51'2 3.2
2017-Sep-12 13:30N 35°57' E 014°53'0 0.1
2017-Sep-12 12:15N 35°57' E 014°53'0 0.0
2017-Sep-12 12:00N 35°57' E 014°53'0 0.0
2017-Sep-12 11:24N 35°57' E 014°53'0 0.0
2017-Sep-12 10:24N 35°57' E 014°53'0 0.0
2017-Sep-12 10:00N 35°57' E 014°53'0 0.0
2017-Sep-12 09:18N 35°57' E 014°53'0 0.0
2017-Sep-12 08:42N 35°57' E 014°53'0 0.1
2017-Sep-12 07:27N 35°57' E 014°53'1 1.2
2017-Sep-12 06:58N 35°57' E 014°52'11 1.1
2017-Sep-11 21:30N 36°08' E 014°48'0 0.8
2017-Sep-11 20:59N 36°07' E 014°48'4 5.7
2017-Sep-11 20:14N 36°05' E 014°52'0 2.1
2017-Sep-11 20:00N 36°05' E 014°52'1 0.2
2017-Sep-11 12:37N 36°06' E 014°51'0 1.4
2017-Sep-11 12:30N 36°06' E 014°51'2 0.2
2017-Sep-10 23:55N 36°06' E 014°49'0 0.5
2017-Sep-10 23:30N 36°06' E 014°49'0 0.4
2017-Sep-10 23:00N 36°06' E 014°49'0 0.3
2017-Sep-10 22:30N 36°06' E 014°49'0 0.2
2017-Sep-10 22:00N 36°06' E 014°49'0 0.2
2017-Sep-10 21:30N 36°06' E 014°49'0 0.2
2017-Sep-10 21:00N 36°06' E 014°49'0 0.2
2017-Sep-10 20:30N 36°05' E 014°49'0 0.4
2017-Sep-10 20:00N 36°05' E 014°49'0 0.4
2017-Sep-10 19:30N 36°05' E 014°48'0 0.5
2017-Sep-10 19:00N 36°05' E 014°48'0 0.6
2017-Sep-10 18:30N 36°05' E 014°48'0 0.6
2017-Sep-10 18:00N 36°05' E 014°47'0 0.7
2017-Sep-10 17:30N 36°05' E 014°47'0 0.7
2017-Sep-10 17:00N 36°05' E 014°47'0 0.8
2017-Sep-10 16:30N 36°05' E 014°46'3 5.1
2017-Sep-10 16:00N 36°03' E 014°43'5 9.5
2017-Sep-10 15:30N 36°01' E 014°38'2 3.2
2017-Sep-10 15:00N 36°00' E 014°37'1 0.7
2017-Sep-10 14:00N 35°60' E 014°37'0 0.7
2017-Sep-10 13:30N 35°60' E 014°37'0 0.7
2017-Sep-10 13:00N 35°59' E 014°37'0 0.7
2017-Sep-10 12:30N 35°59' E 014°38'1 2.3
2017-Sep-10 12:00N 35°59' E 014°39'2 4.7
2017-Sep-10 11:30N 36°01' E 014°41'2 4.7
2017-Sep-10 11:00N 36°02' E 014°43'2 3.7
2017-Sep-10 10:30N 36°04' E 014°45'2 4.2
2017-Sep-10 09:57N 36°05' E 014°47'0 0.9
2017-Sep-10 09:28N 36°06' E 014°47'1 1.2
2017-Sep-10 08:58N 36°06' E 014°48'0 0.2
2017-Sep-10 08:30N 36°06' E 014°48'0 0.2
2017-Sep-10 07:58N 36°06' E 014°48'0 0.2
2017-Sep-10 07:30N 36°06' E 014°48'0 0.1
2017-Sep-10 07:00N 36°06' E 014°48'0 0.1
2017-Sep-10 06:30N 36°06' E 014°48'0 0.1
2017-Sep-10 06:00N 36°06' E 014°48'0 0.1
2017-Sep-10 05:30N 36°06' E 014°48'0 0.2
2017-Sep-10 05:00N 36°06' E 014°48'0 0.2
2017-Sep-10 04:30N 36°06' E 014°48'0 0.2
2017-Sep-10 04:00N 36°06' E 014°48'0 0.2
2017-Sep-10 03:30N 36°06' E 014°48'0 0.2
2017-Sep-10 02:59N 36°07' E 014°47'0 0.3
2017-Sep-10 02:29N 36°07' E 014°47'0 0.3
2017-Sep-10 02:00N 36°07' E 014°47'0 0.3
2017-Sep-10 01:26N 36°07' E 014°47'0 0.3
2017-Sep-10 01:00N 36°07' E 014°47'0 0.3
2017-Sep-10 00:30N 36°07' E 014°47'0 0.3
2017-Sep-09 23:57N 36°07' E 014°46'0 0.3
2017-Sep-09 23:16N 36°07' E 014°46'0 0.4
2017-Sep-09 23:00N 36°07' E 014°46'0 0.3
2017-Sep-09 22:30N 36°07' E 014°46'0 0.2
2017-Sep-09 21:53N 36°07' E 014°46'0 0.2
2017-Sep-09 21:30N 36°07' E 014°46'0 0.2
2017-Sep-09 21:00N 36°07' E 014°45'0 0.2
2017-Sep-09 20:29N 36°07' E 014°45'0 0.2
2017-Sep-09 19:55N 36°07' E 014°45'0 0.0
2017-Sep-09 19:24N 36°07' E 014°45'0 0.1
2017-Sep-09 19:00N 36°07' E 014°45'0 0.3
2017-Sep-09 18:28N 36°07' E 014°45'1 0.4
2017-Sep-09 16:35N 36°06' E 014°45'0 0.3
2017-Sep-09 16:24N 36°06' E 014°44'0 0.4
2017-Sep-09 16:00N 36°06' E 014°44'1 0.9
2017-Sep-09 15:23N 36°06' E 014°44'1 2.8
2017-Sep-09 14:55N 36°05' E 014°45'3 4.5
2017-Sep-09 14:19N 36°04' E 014°48'2 4.7
2017-Sep-09 13:59N 36°03' E 014°50'2 4.3
2017-Sep-09 13:26N 36°02' E 014°52'2 4.2
2017-Sep-09 13:00N 36°02' E 014°54'1 0.8
2017-Sep-09 12:15N 36°01' E 014°54'0 0.0
2017-Sep-09 11:42N 36°01' E 014°54'0 0.0
2017-Sep-09 11:30N 36°01' E 014°54'0 0.0
2017-Sep-09 10:45N 36°01' E 014°54'0 0.0
2017-Sep-09 10:21N 36°01' E 014°54'0 0.0
2017-Sep-09 08:54N 36°01' E 014°54'0 0.0
2017-Sep-09 08:24N 36°01' E 014°54'0 0.1
2017-Sep-09 07:48N 36°01' E 014°54'0 0.2
2017-Sep-09 07:30N 36°01' E 014°54'0 0.1
2017-Sep-09 06:36N 36°01' E 014°54'0 0.1
2017-Sep-09 06:30N 36°01' E 014°54'0 0.0
2017-Sep-09 05:57N 36°01' E 014°54'0 0.0
2017-Sep-09 05:24N 36°01' E 014°54'0 0.1
2017-Sep-09 04:57N 36°01' E 014°54'0 0.0
2017-Sep-09 04:24N 36°01' E 014°54'0 0.1
2017-Sep-09 04:00N 36°01' E 014°54'0 0.0
2017-Sep-09 02:27N 36°01' E 014°54'0 0.0
2017-Sep-09 01:51N 36°01' E 014°54'  

Dump ship's entire track history